Time;durP1;ratioP1;P1;durP2;ratioP2;P2;SDS_P1;SDS_P2;PMS_P1;PMS_P2;Temp;Humidity;BMP_temperature;BMP_pressure;BME280_temperature;BME280_humidity;BME280_pressure;Samples;Min_cycle;Max_cycle;Signal;HPM_P1;HPM_P2
2022/01/08 02:14:58;;;;;;;1.60;0.80;;;0.90;92.70;;;;;;6117100;23;20513;-80
2022/01/08 02:18:29;;;;;;;0.80;0.60;;;0.90;92.70;;;;;;6029770;23;20034;-80
2022/01/08 02:22:21;;;;;;;0.70;0.68;;;0.80;92.70;;;;;;5988041;23;20024;-81
2022/01/08 02:25:22;;;;;;;0.70;0.60;;;0.90;92.70;;;;;;5921267;24;20017;-80
2022/01/08 02:32:28;;;;;;;0.98;0.60;;;0.80;92.70;;;;;;5839219;24;20104;-80
2022/01/08 02:36:03;;;;;;;0.43;0.40;;;0.80;92.70;;;;;;5759397;24;20032;-80
2022/01/08 02:46:33;;;;;;;1.33;0.55;;;0.80;92.70;;;;;;5774472;24;20030;-80
2022/01/08 02:53:22;;;;;;;0.40;0.40;;;0.80;92.80;;;;;;5752433;24;20458;-80
2022/01/08 02:55:49;;;;;;;0.70;0.70;;;0.70;92.80;;;;;;5817399;24;20160;-80
2022/01/08 02:58:15;;;;;;;1.13;0.68;;;0.70;92.80;;;;;;5798341;24;20035;-80
2022/01/08 03:00:41;;;;;;;1.15;0.85;;;0.60;92.80;;;;;;5812519;24;20344;-80
2022/01/08 03:03:09;;;;;;;1.00;0.70;;;0.80;92.80;;;;;;5765243;24;20035;-80
2022/01/08 03:05:35;;;;;;;0.50;0.50;;;0.80;92.80;;;;;;5847942;24;20089;-80
2022/01/08 03:08:01;;;;;;;1.08;0.80;;;0.70;92.80;;;;;;5861256;24;20086;-80
2022/01/08 03:10:27;;;;;;;1.27;0.68;;;0.70;92.80;;;;;;5891452;24;20116;-80
2022/01/08 03:12:55;;;;;;;0.93;0.70;;;0.80;92.80;;;;;;5920594;24;20553;-80
2022/01/08 03:15:23;;;;;;;2.00;0.50;;;0.70;92.80;;;;;;5950047;24;20322;-80
2022/01/08 03:17:49;;;;;;;0.77;0.68;;;0.80;92.80;;;;;;6032366;23;20301;-79
2022/01/08 03:20:16;;;;;;;1.70;0.95;;;0.80;92.70;;;;;;6079253;23;20380;-80
2022/01/08 03:22:46;;;;;;;0.75;0.57;;;0.80;92.70;;;;;;6141501;23;20017;-80
2022/01/08 03:25:13;;;;;;;1.33;0.70;;;0.80;92.70;;;;;;6104880;23;20063;-80
2022/01/08 03:27:41;;;;;;;1.00;0.70;;;1.00;92.70;;;;;;6106886;23;20027;-79
2022/01/08 03:30:08;;;;;;;0.85;0.68;;;0.90;92.70;;;;;;6121601;22;20037;-80
2022/01/08 03:32:34;;;;;;;1.15;0.70;;;0.90;92.70;;;;;;6224081;22;20025;-79
2022/01/08 03:35:01;;;;;;;1.33;0.82;;;1.00;92.70;;;;;;6225376;22;20421;-80
2022/01/08 03:37:27;;;;;;;0.73;0.60;;;0.90;92.60;;;;;;6197933;22;20013;-80
2022/01/08 03:39:53;;;;;;;0.73;0.40;;;1.00;92.70;;;;;;6194425;22;20009;-80
2022/01/08 03:42:19;;;;;;;1.30;0.80;;;0.90;92.60;;;;;;6198413;22;20084;-79
2022/01/08 03:44:45;;;;;;;0.90;0.70;;;1.00;92.60;;;;;;6194081;22;20006;-79
2022/01/08 03:47:52;;;;;;;0.85;0.60;;;0.90;92.70;;;;;;6073422;22;20442;-80
2022/01/08 03:49:58;;;;;;;1.52;0.60;;;0.80;92.70;;;;;;6210715;22;20037;-79
2022/01/08 03:52:25;;;;;;;0.63;0.50;;;0.80;92.70;;;;;;6198538;22;20510;-79
2022/01/08 03:54:51;;;;;;;0.98;0.60;;;0.80;92.70;;;;;;6197611;22;20010;-79
2022/01/08 03:57:17;;;;;;;0.75;0.50;;;0.80;92.70;;;;;;6196911;22;20002;-79
2022/01/08 03:59:43;;;;;;;0.77;0.52;;;0.80;92.70;;;;;;6199180;22;20028;-80
2022/01/08 04:02:10;;;;;;;1.20;0.55;;;0.70;92.70;;;;;;6198429;22;20003;-80
2022/01/08 04:04:36;;;;;;;1.05;0.50;;;0.70;92.70;;;;;;6197610;22;19998;-80
2022/01/08 04:07:02;;;;;;;1.77;0.50;;;0.70;92.80;;;;;;6197281;22;20005;-79
2022/01/08 04:09:28;;;;;;;0.30;0.30;;;0.60;92.80;;;;;;6198587;22;20353;-79
2022/01/08 04:11:56;;;;;;;0.65;0.60;;;0.70;92.80;;;;;;6198380;22;20013;-79
2022/01/08 04:14:22;;;;;;;0.52;0.50;;;0.70;92.80;;;;;;6193843;22;20006;-80
2022/01/08 04:16:51;;;;;;;0.57;0.50;;;0.60;92.80;;;;;;6199788;22;20013;-79
2022/01/08 04:19:19;;;;;;;0.60;0.30;;;0.60;92.90;;;;;;6196544;22;20030;-79
2022/01/08 04:22:07;;;;;;;0.50;0.45;;;0.60;92.90;;;;;;6193759;22;20002;-79
2022/01/08 04:24:31;;;;;;;0.77;0.50;;;0.50;92.90;;;;;;6209713;22;20429;-80
2022/01/08 04:26:57;;;;;;;0.47;0.30;;;0.50;92.90;;;;;;6197966;22;20090;-79
2022/01/08 04:29:23;;;;;;;0.55;0.40;;;0.50;92.90;;;;;;6197194;22;20442;-79
2022/01/08 04:31:49;;;;;;;0.50;0.40;;;0.40;92.90;;;;;;6199683;22;20510;-80
2022/01/08 04:34:15;;;;;;;0.30;0.30;;;0.50;92.90;;;;;;6198538;22;20033;-79
2022/01/08 04:36:41;;;;;;;0.98;0.50;;;0.50;92.90;;;;;;6198618;22;20040;-79
2022/01/08 04:39:07;;;;;;;0.28;0.28;;;0.50;92.90;;;;;;6196937;22;20017;-79
2022/01/08 04:41:33;;;;;;;0.63;0.40;;;0.50;92.90;;;;;;6199524;22;20498;-79
2022/01/08 04:43:59;;;;;;;0.40;0.40;;;0.50;92.90;;;;;;6198219;22;20040;-79
2022/01/08 04:46:25;;;;;;;0.30;0.30;;;0.50;92.90;;;;;;6199286;22;20100;-79
2022/01/08 04:48:51;;;;;;;0.82;0.30;;;0.40;92.80;;;;;;6198465;22;20437;-79
2022/01/08 04:51:17;;;;;;;0.57;0.43;;;0.40;92.90;;;;;;6198522;22;20018;-80
2022/01/08 04:53:43;;;;;;;0.50;0.40;;;0.50;92.90;;;;;;6198009;22;20006;-79
2022/01/08 04:56:09;;;;;;;0.30;0.30;;;0.40;92.90;;;;;;6196844;22;20443;-79
2022/01/08 04:58:35;;;;;;;0.68;0.50;;;0.40;92.90;;;;;;6199814;22;20051;-79
2022/01/08 05:01:01;;;;;;;0.55;0.40;;;0.40;92.90;;;;;;6198190;22;20002;-79
2022/01/08 05:03:27;;;;;;;0.40;0.30;;;0.40;92.90;;;;;;6197419;22;20002;-79
2022/01/08 05:05:57;;;;;;;0.47;0.45;;;0.40;92.90;;;;;;6188990;22;20434;-79
2022/01/08 05:08:23;;;;;;;0.47;0.40;;;0.30;92.90;;;;;;6194003;22;20088;-79
2022/01/08 05:10:49;;;;;;;0.88;0.60;;;0.40;92.90;;;;;;6198293;22;20427;-79
2022/01/08 05:13:15;;;;;;;0.80;0.40;;;0.40;92.90;;;;;;6197932;22;20021;-79
2022/01/08 05:15:41;;;;;;;0.60;0.50;;;0.40;92.90;;;;;;6197148;22;19999;-79
2022/01/08 05:18:09;;;;;;;0.70;0.60;;;0.30;92.90;;;;;;6196680;22;20524;-79
2022/01/08 05:20:37;;;;;;;0.70;0.55;;;0.40;92.90;;;;;;6195893;22;20448;-79
2022/01/08 05:23:04;;;;;;;0.68;0.45;;;0.30;92.90;;;;;;6199638;22;20036;-79
2022/01/08 05:25:30;;;;;;;0.47;0.47;;;0.40;92.90;;;;;;6198051;22;20063;-79
2022/01/08 05:27:57;;;;;;;0.90;0.40;;;0.30;93.10;;;;;;6197582;22;20017;-79
2022/01/08 05:30:24;;;;;;;1.50;0.70;;;0.30;92.90;;;;;;6196379;22;20330;-79
2022/01/08 05:32:51;;;;;;;0.30;0.30;;;0.30;92.80;;;;;;6198573;22;20048;-79
2022/01/08 05:35:18;;;;;;;1.05;0.70;;;0.20;92.80;;;;;;6199143;22;20483;-80
2022/01/08 05:37:47;;;;;;;0.82;0.70;;;0.30;92.90;;;;;;6198829;22;20024;-81
2022/01/08 05:40:14;;;;;;;1.08;0.63;;;0.30;93.10;;;;;;6197861;22;20006;-80
2022/01/08 05:42:40;;;;;;;1.08;0.50;;;0.20;92.80;;;;;;6200218;22;20078;-81
2022/01/08 05:45:07;;;;;;;1.25;0.63;;;0.30;92.80;;;;;;6199942;22;20159;-81
2022/01/08 05:47:34;;;;;;;0.40;0.40;;;0.30;92.80;;;;;;6198899;22;20014;-80
2022/01/08 05:50:02;;;;;;;1.23;0.55;;;0.30;92.80;;;;;;6216337;22;20013;-80
2022/01/08 05:52:28;;;;;;;0.45;0.45;;;0.30;92.80;;;;;;6196893;22;20003;-80
2022/01/08 05:54:54;;;;;;;1.38;0.60;;;0.30;92.80;;;;;;6200599;22;20002;-81
2022/01/08 05:57:20;;;;;;;1.17;0.68;;;0.20;93.10;;;;;;6217083;22;20018;-80
2022/01/08 05:59:46;;;;;;;0.55;0.55;;;0.30;92.90;;;;;;6199646;22;20006;-81
2022/01/08 06:02:13;;;;;;;0.73;0.50;;;0.30;92.80;;;;;;6198366;22;20051;-81
2022/01/08 06:04:39;;;;;;;0.82;0.50;;;0.40;92.80;;;;;;6200414;22;20501;-81
2022/01/08 06:07:05;;;;;;;0.80;0.47;;;0.40;92.80;;;;;;6199691;22;20091;-81
2022/01/08 06:09:31;;;;;;;1.00;0.60;;;0.40;92.80;;;;;;6199651;22;20434;-81
2022/01/08 06:11:57;;;;;;;0.98;0.60;;;0.30;92.70;;;;;;6197883;22;20017;-80
2022/01/08 06:14:23;;;;;;;0.75;0.57;;;0.30;92.80;;;;;;6200324;22;20013;-80
2022/01/08 06:16:50;;;;;;;0.50;0.50;;;0.30;92.80;;;;;;6199428;22;20032;-80
2022/01/08 06:19:16;;;;;;;1.15;0.70;;;0.30;92.80;;;;;;6198530;22;20311;-80
2022/01/08 06:21:43;;;;;;;0.82;0.50;;;0.30;92.80;;;;;;6197856;22;20009;-81
2022/01/08 06:24:09;;;;;;;1.13;0.80;;;0.20;92.80;;;;;;6200467;22;20085;-81
2022/01/08 06:26:35;;;;;;;1.25;0.70;;;0.20;92.80;;;;;;6224783;22;20162;-81
2022/01/08 06:29:03;;;;;;;2.28;0.60;;;0.20;92.80;;;;;;6200516;22;20010;-81
2022/01/08 06:31:32;;;;;;;1.20;0.57;;;0.20;92.80;;;;;;6198703;22;20006;-81
2022/01/08 06:44:29;;;;;;;0.85;0.40;;;0.20;92.80;;;;;;5893401;24;20531;-80
2022/01/08 06:59:11;;;;;;;1.15;0.60;;;0.20;92.90;;;;;;5573962;25;20073;-80
2022/01/08 07:26:23;;;;;;;1.40;0.63;;;0.30;92.50;;;;;;6099424;23;20028;-80
2022/01/08 07:29:46;;;;;;;0.82;0.55;;;0.40;92.50;;;;;;5933035;24;20029;-80
2022/01/08 07:40:09;;;;;;;1.48;0.70;;;0.50;92.50;;;;;;5858162;24;20021;-80
2022/01/08 07:43:39;;;;;;;1.35;0.70;;;0.60;92.40;;;;;;5874062;24;20409;-80
2022/01/08 07:46:53;;;;;;;0.75;0.60;;;0.80;92.50;;;;;;5873520;24;20083;-80
2022/01/08 08:14:52;;;;;;;1.58;0.88;;;0.90;92.30;;;;;;5570399;25;20027;-80
2022/01/08 08:17:28;;;;;;;1.98;1.20;;;0.90;92.30;;;;;;5574032;25;20050;-79
2022/01/08 08:20:30;;;;;;;2.88;1.20;;;1.00;92.30;;;;;;5563969;25;20525;-79
2022/01/08 08:27:01;;;;;;;2.08;1.20;;;1.30;92.30;;;;;;5550246;25;20043;-80
2022/01/08 08:29:32;;;;;;;2.45;1.48;;;1.20;92.20;;;;;;5566944;25;20030;-80
2022/01/08 08:32:02;;;;;;;2.50;1.30;;;1.30;92.20;;;;;;5561698;25;20037;-80
2022/01/08 08:54:03;;;;;;;1.73;1.20;;;1.50;92.10;;;;;;5710263;25;20036;-80
2022/01/08 08:57:24;;;;;;;1.17;1.00;;;1.50;92.10;;;;;;5738661;24;20335;-80
2022/01/08 09:35:15;;;;;;;5.40;1.70;;;2.00;92.00;;;;;;5890486;24;20120;-81
2022/01/08 09:41:41;;;;;;;;;;;2.10;92.10;;;;;;5951172;24;20469;-81
2022/01/08 09:48:23;;;;;;;5.03;2.47;;;2.10;92.00;;;;;;5951347;24;20047;-83
2022/01/08 09:51:48;;;;;;;4.32;2.35;;;2.10;91.90;;;;;;5928887;24;20024;-82
2022/01/08 09:54:45;;;;;;;3.60;2.22;;;2.20;92.00;;;;;;5949704;24;20091;-83
2022/01/08 09:57:17;;;;;;;5.93;2.70;;;2.20;91.90;;;;;;5908501;24;20023;-83
2022/01/08 09:59:51;;;;;;;4.53;2.35;;;2.30;92.00;;;;;;5937686;23;20024;-80
2022/01/08 11:55:18;;;;;;;6.33;3.20;;;3.80;91.70;;;;;;6085660;23;20395;-78
2022/01/08 12:02:45;;;;;;;9.55;4.90;;;3.90;91.70;;;;;;5976854;23;20107;-79
2022/01/08 12:05:58;;;;;;;9.68;4.80;;;3.90;91.60;;;;;;5873645;24;20027;-79
2022/01/08 12:09:19;;;;;;;7.82;4.18;;;3.90;91.60;;;;;;5792407;24;20050;-79
2022/01/08 12:39:06;;;;;;;5.22;2.70;;;4.10;91.70;;;;;;5838327;24;20028;-79
2022/01/08 13:01:14;;;;;;;6.35;2.55;;;4.10;91.60;;;;;;6174039;23;20028;-80
2022/01/08 13:11:35;;;;;;;4.93;2.60;;;4.20;91.60;;;;;;5993135;23;20036;-78
2022/01/08 13:21:29;;;;;;;5.25;2.10;;;4.10;91.60;;;;;;5868482;24;20153;-80
2022/01/08 13:23:55;;;;;;;;;;;4.00;91.60;;;;;;5907245;24;20024;-80
2022/01/08 13:26:31;;;;;;;2.95;1.73;;;4.00;91.60;;;;;;5927874;24;21207;-80
2022/01/08 13:28:58;;;;;;;4.22;1.80;;;4.10;91.70;;;;;;5997604;23;20040;-79
2022/01/08 13:31:41;;;;;;;2.80;1.50;;;4.10;91.70;;;;;;6007514;23;20036;-80
2022/01/08 13:34:07;;;;;;;2.85;1.58;;;4.10;91.70;;;;;;6007178;23;20016;-80
2022/01/08 13:36:33;;;;;;;3.22;1.58;;;4.20;91.70;;;;;;6007292;23;20008;-81
2022/01/08 13:39:00;;;;;;;3.08;1.58;;;4.20;91.70;;;;;;6030818;23;20060;-79
2022/01/08 13:41:25;;;;;;;2.40;1.38;;;4.20;91.70;;;;;;5984605;23;20012;-79
2022/01/08 13:44:03;;;;;;;3.10;0.95;;;4.30;91.80;;;;;;5982500;23;20080;-80
2022/01/08 13:46:33;;;;;;;1.85;1.20;;;4.20;91.70;;;;;;5983870;23;20020;-80
2022/01/08 13:49:02;;;;;;;2.70;1.35;;;4.30;91.70;;;;;;6007538;23;20087;-80
2022/01/08 13:51:28;;;;;;;3.17;1.15;;;4.30;91.70;;;;;;6100233;23;20080;-80
2022/01/08 13:54:00;;;;;;;2.55;1.23;;;4.30;91.70;;;;;;6183865;23;20527;-79
2022/01/08 13:56:28;;;;;;;2.33;1.30;;;4.30;91.70;;;;;;6159317;23;20005;-80
2022/01/08 13:59:17;;;;;;;2.35;1.38;;;4.30;91.70;;;;;;6132874;23;19997;-79
2022/01/08 14:01:46;;;;;;;2.85;1.30;;;4.30;91.70;;;;;;6133907;23;20866;-79
2022/01/08 14:04:14;;;;;;;1.88;1.30;;;4.20;91.70;;;;;;6132307;23;20017;-80
2022/01/08 14:06:42;;;;;;;2.88;1.40;;;4.20;91.60;;;;;;6131272;23;20025;-79
2022/01/08 14:09:10;;;;;;;2.28;1.10;;;4.30;91.70;;;;;;6131238;23;20010;-80
2022/01/08 14:11:36;;;;;;;4.90;1.67;;;4.20;91.70;;;;;;6131392;23;20013;-79
2022/01/08 14:14:08;;;;;;;2.72;1.50;;;4.20;91.70;;;;;;6179905;23;20013;-80
2022/01/08 14:16:37;;;;;;;3.42;1.48;;;4.20;91.60;;;;;;6130304;23;20010;-80
2022/01/08 14:19:15;;;;;;;3.75;1.55;;;4.20;91.70;;;;;;6130303;23;20013;-80
2022/01/08 14:21:59;;;;;;;1.33;0.80;;;4.20;91.70;;;;;;6133700;23;20429;-80
2022/01/08 14:24:27;;;;;;;1.60;0.90;;;4.20;91.70;;;;;;6156947;23;20013;-80
2022/01/08 14:27:10;;;;;;;2.78;1.17;;;4.20;91.80;;;;;;6130996;23;20018;-80
2022/01/08 14:29:38;;;;;;;2.67;1.17;;;4.20;91.80;;;;;;6153950;23;20022;-80
2022/01/08 14:32:08;;;;;;;3.03;1.33;;;4.10;91.80;;;;;;6157312;23;20036;-80
2022/01/08 14:34:50;;;;;;;4.18;1.58;;;4.10;91.80;;;;;;6129787;23;20021;-81
2022/01/08 14:37:29;;;;;;;2.30;1.20;;;4.10;91.80;;;;;;6156556;23;20433;-79
2022/01/08 14:39:55;;;;;;;1.52;0.90;;;4.10;91.80;;;;;;6157469;23;20005;-80
2022/01/08 14:42:28;;;;;;;1.67;0.95;;;4.00;91.80;;;;;;6130542;23;20021;-79
2022/01/08 14:44:58;;;;;;;1.58;0.98;;;4.00;91.80;;;;;;6154674;23;20204;-81
2022/01/08 14:47:36;;;;;;;1.65;0.93;;;3.90;91.80;;;;;;6130139;23;20020;-80
2022/01/08 14:50:05;;;;;;;1.17;0.80;;;3.90;91.90;;;;;;6180343;23;20013;-80
2022/01/08 14:52:31;;;;;;;2.47;0.70;;;3.90;91.90;;;;;;6132229;23;20063;-80
2022/01/08 14:54:57;;;;;;;1.60;0.93;;;3.90;91.90;;;;;;6130252;23;20009;-80
2022/01/08 14:57:24;;;;;;;2.38;1.05;;;3.80;91.90;;;;;;6129454;23;20045;-81
2022/01/08 14:59:50;;;;;;;1.35;0.82;;;3.80;91.90;;;;;;6181575;23;20121;-80
2022/01/08 15:02:16;;;;;;;1.65;0.90;;;3.80;92.00;;;;;;6130475;23;20020;-80
2022/01/08 15:04:43;;;;;;;3.67;1.30;;;3.90;92.00;;;;;;6129716;23;20379;-80
2022/01/08 15:07:11;;;;;;;1.98;0.80;;;3.80;92.00;;;;;;6127511;23;20052;-80
2022/01/08 15:09:37;;;;;;;2.40;0.90;;;3.80;92.00;;;;;;6178745;23;20001;-80
2022/01/08 15:12:03;;;;;;;2.40;1.00;;;3.80;92.00;;;;;;6131306;23;20448;-81
2022/01/08 15:14:28;;;;;;;3.42;1.23;;;3.70;92.10;;;;;;6129410;23;20080;-81
2022/01/08 15:16:54;;;;;;;2.20;1.10;;;3.70;92.10;;;;;;6156165;23;20017;-80
2022/01/08 15:19:20;;;;;;;3.22;0.90;;;3.80;92.10;;;;;;6130555;23;20006;-81
2022/01/08 15:21:46;;;;;;;1.80;1.05;;;3.80;92.10;;;;;;6130125;23;20029;-81
2022/01/08 15:24:12;;;;;;;1.33;1.00;;;3.80;92.10;;;;;;6157822;23;20035;-81
2022/01/08 15:26:38;;;;;;;2.58;1.00;;;3.70;92.10;;;;;;6131108;23;20009;-81
2022/01/08 15:29:04;;;;;;;1.02;0.65;;;3.70;92.10;;;;;;6157109;23;20009;-81
2022/01/08 15:31:29;;;;;;;1.23;0.80;;;3.80;92.10;;;;;;6131998;23;20001;-80
2022/01/08 15:33:55;;;;;;;1.40;0.80;;;3.70;92.10;;;;;;6133613;23;20063;-81
2022/01/08 15:36:21;;;;;;;1.13;0.80;;;3.80;92.10;;;;;;6158448;23;20426;-81
2022/01/08 15:38:47;;;;;;;1.10;0.65;;;3.80;92.10;;;;;;6132650;23;20030;-81
2022/01/08 15:41:13;;;;;;;1.40;0.70;;;3.80;92.10;;;;;;6158381;23;20005;-80
2022/01/08 15:43:39;;;;;;;0.60;0.50;;;3.90;92.10;;;;;;6158115;23;20001;-81
2022/01/08 15:46:05;;;;;;;3.25;0.80;;;3.80;92.10;;;;;;6129271;23;20104;-81
2022/01/08 15:48:31;;;;;;;0.90;0.70;;;3.90;92.30;;;;;;6158277;23;20028;-81
2022/01/08 15:50:59;;;;;;;1.65;0.50;;;3.90;92.10;;;;;;6127841;23;20073;-81
2022/01/08 15:53:26;;;;;;;1.50;0.60;;;3.80;92.10;;;;;;6130758;23;20009;-81
2022/01/08 15:55:52;;;;;;;1.17;0.70;;;4.10;92.20;;;;;;6155268;23;20373;-81
2022/01/08 15:58:18;;;;;;;0.70;0.50;;;4.00;92.20;;;;;;6131807;23;20009;-81
2022/01/08 16:00:44;;;;;;;1.00;0.70;;;4.00;92.20;;;;;;6132748;23;20016;-81
2022/01/08 16:03:10;;;;;;;1.58;0.70;;;4.00;92.20;;;;;;6133096;23;20328;-81
2022/01/08 16:05:36;;;;;;;1.20;0.80;;;4.00;92.10;;;;;;6131227;23;20020;-81
2022/01/08 16:08:04;;;;;;;2.28;1.00;;;4.10;92.10;;;;;;6154756;23;20020;-81
2022/01/08 16:10:30;;;;;;;0.90;0.70;;;4.10;92.10;;;;;;6127391;23;20096;-82
2022/01/08 16:12:57;;;;;;;1.10;1.00;;;4.10;92.10;;;;;;6184853;23;20001;-79
2022/01/08 16:15:23;;;;;;;2.38;0.90;;;4.10;92.10;;;;;;6158224;23;19997;-82
2022/01/08 16:17:49;;;;;;;1.00;0.70;;;4.10;92.10;;;;;;6131660;23;20033;-79
2022/01/08 16:20:15;;;;;;;1.30;1.00;;;4.10;92.10;;;;;;6184708;23;20001;-79
2022/01/08 16:22:41;;;;;;;1.00;0.77;;;4.10;92.10;;;;;;6158563;23;20093;-79
2022/01/08 16:25:08;;;;;;;1.17;0.73;;;4.20;92.10;;;;;;6158050;23;20040;-80
2022/01/08 16:27:34;;;;;;;3.22;1.08;;;4.20;92.10;;;;;;6158089;23;20028;-79
2022/01/08 16:29:59;;;;;;;1.80;0.90;;;4.20;92.10;;;;;;6155190;23;20009;-79
2022/01/08 16:32:25;;;;;;;1.77;1.10;;;4.20;92.10;;;;;;6131432;23;20005;-79
2022/01/08 16:34:52;;;;;;;1.25;0.85;;;4.30;92.10;;;;;;6130290;23;20041;-79
2022/01/08 16:37:17;;;;;;;1.65;1.08;;;4.20;92.10;;;;;;6158236;23;20009;-80
2022/01/08 16:39:44;;;;;;;1.45;0.80;;;4.20;92.10;;;;;;6132837;23;20012;-79
2022/01/08 16:42:12;;;;;;;1.33;0.90;;;4.20;92.10;;;;;;6157988;23;20012;-80
2022/01/08 16:44:38;;;;;;;1.13;1.00;;;4.30;92.10;;;;;;6158072;23;20008;-80
2022/01/08 16:47:05;;;;;;;1.52;0.77;;;4.30;92.10;;;;;;6157766;23;20016;-79
2022/01/08 16:49:31;;;;;;;1.33;1.00;;;4.30;92.10;;;;;;6133548;23;20024;-80
2022/01/08 16:51:57;;;;;;;1.70;1.10;;;4.40;92.10;;;;;;6132568;23;20005;-79
2022/01/08 16:54:25;;;;;;;1.60;0.88;;;4.30;92.10;;;;;;6157773;23;20084;-79
2022/01/08 16:56:51;;;;;;;2.03;0.90;;;4.30;92.10;;;;;;6130576;23;20101;-79
2022/01/08 16:59:17;;;;;;;1.33;0.80;;;4.30;92.10;;;;;;6157824;23;20009;-79
2022/01/08 17:01:43;;;;;;;0.88;0.77;;;4.40;92.20;;;;;;6131497;23;20006;-79
2022/01/08 17:04:10;;;;;;;2.83;0.80;;;4.40;92.20;;;;;;6132402;23;20006;-79
2022/01/08 17:06:35;;;;;;;2.05;0.75;;;4.40;92.20;;;;;;6157646;23;20028;-79
2022/01/08 17:09:01;;;;;;;0.88;0.70;;;4.40;92.20;;;;;;6154715;23;20001;-79
2022/01/08 17:11:27;;;;;;;0.55;0.55;;;4.40;92.20;;;;;;6157622;23;20028;-79
2022/01/08 17:13:53;;;;;;;0.65;0.65;;;4.40;92.20;;;;;;6132829;23;20055;-79
2022/01/08 17:16:19;;;;;;;0.70;0.70;;;4.50;92.30;;;;;;6130422;23;20089;-79
2022/01/08 17:18:44;;;;;;;1.20;0.77;;;4.40;92.20;;;;;;6132824;23;20016;-81
2022/01/08 17:21:10;;;;;;;1.38;1.00;;;4.50;92.30;;;;;;6157750;23;20311;-79
2022/01/08 17:23:37;;;;;;;1.15;0.88;;;4.50;92.30;;;;;;6130197;23;20397;-81
2022/01/08 17:26:03;;;;;;;0.90;0.80;;;4.50;92.30;;;;;;6183903;23;20433;-79
2022/01/08 17:28:29;;;;;;;0.88;0.80;;;4.50;92.20;;;;;;6155322;23;20002;-80
2022/01/08 17:30:55;;;;;;;1.00;0.80;;;4.60;92.30;;;;;;6131029;23;20008;-79
2022/01/08 17:33:21;;;;;;;1.98;1.10;;;4.60;92.30;;;;;;6155005;23;20009;-79
2022/01/08 17:35:48;;;;;;;1.80;0.95;;;4.60;92.30;;;;;;6129489;23;20016;-79
2022/01/08 17:38:14;;;;;;;1.15;0.80;;;4.70;92.30;;;;;;6157804;23;20005;-80
2022/01/08 17:40:43;;;;;;;1.35;0.98;;;4.60;92.20;;;;;;6130044;23;20009;-79
2022/01/08 17:43:09;;;;;;;0.52;0.52;;;4.70;92.30;;;;;;6132894;23;20009;-80
2022/01/08 17:45:36;;;;;;;0.88;0.60;;;4.70;92.30;;;;;;6157687;23;20005;-80
2022/01/08 17:48:03;;;;;;;1.58;0.93;;;4.70;92.30;;;;;;6157907;23;20017;-80
2022/01/08 17:50:42;;;;;;;1.75;0.90;;;4.70;92.30;;;;;;6131024;23;20021;-80
2022/01/08 17:53:10;;;;;;;0.80;0.70;;;4.70;92.30;;;;;;6129891;23;20005;-79
2022/01/08 17:55:35;;;;;;;1.73;0.70;;;4.70;92.30;;;;;;6184427;23;20043;-80
2022/01/08 17:58:02;;;;;;;0.60;0.60;;;4.70;92.30;;;;;;6157705;23;20008;-80
2022/01/08 18:00:28;;;;;;;1.10;0.82;;;4.80;92.30;;;;;;6154403;23;20422;-81
2022/01/08 18:02:55;;;;;;;0.82;0.73;;;4.80;92.30;;;;;;6158034;23;20084;-80
2022/01/08 18:05:21;;;;;;;1.40;0.73;;;4.80;92.40;;;;;;6158671;23;20009;-80
2022/01/08 18:07:47;;;;;;;1.10;0.80;;;4.80;92.30;;;;;;6184590;23;20017;-80
2022/01/08 18:10:16;;;;;;;1.50;0.70;;;4.90;92.40;;;;;;6157909;23;20299;-80
2022/01/08 18:12:42;;;;;;;0.93;0.60;;;4.90;92.40;;;;;;6157643;23;20021;-80
2022/01/08 18:15:09;;;;;;;1.00;0.70;;;4.90;92.40;;;;;;6157628;23;20005;-80
2022/01/08 18:17:39;;;;;;;1.45;0.80;;;4.90;92.40;;;;;;6157723;23;20013;-80
2022/01/08 18:20:07;;;;;;;1.40;0.70;;;4.90;92.40;;;;;;6158048;23;20024;-80
2022/01/08 18:22:32;;;;;;;1.08;0.90;;;5.00;92.40;;;;;;6157575;23;20333;-79
2022/01/08 18:24:58;;;;;;;0.85;0.80;;;5.00;92.40;;;;;;6155192;23;20044;-80
2022/01/08 18:27:24;;;;;;;0.70;0.70;;;5.00;92.30;;;;;;6183856;23;20087;-79
2022/01/08 18:29:50;;;;;;;1.73;0.70;;;5.00;92.30;;;;;;6157448;23;20425;-79
2022/01/08 18:32:16;;;;;;;1.80;0.90;;;5.10;92.40;;;;;;6157875;23;20001;-79
2022/01/08 18:34:41;;;;;;;0.70;0.50;;;5.10;92.40;;;;;;6157532;23;19997;-80
2022/01/08 18:37:07;;;;;;;1.38;0.73;;;5.10;92.30;;;;;;6132720;23;20008;-79
2022/01/08 18:39:34;;;;;;;0.50;0.50;;;5.10;92.40;;;;;;6157465;23;20434;-80
2022/01/08 18:42:00;;;;;;;0.98;0.60;;;5.00;92.30;;;;;;6157732;23;20467;-79
2022/01/08 18:44:26;;;;;;;0.63;0.60;;;5.10;92.40;;;;;;6184351;23;20056;-80
2022/01/08 18:46:53;;;;;;;0.90;0.60;;;5.20;92.40;;;;;;6157218;23;20377;-80
2022/01/08 18:49:19;;;;;;;0.60;0.60;;;5.20;92.40;;;;;;6133037;23;20007;-80
2022/01/08 18:51:45;;;;;;;1.42;0.70;;;5.20;92.40;;;;;;6153498;23;20009;-82
2022/01/08 18:54:11;;;;;;;0.52;0.50;;;5.20;92.40;;;;;;6132632;23;20001;-81
2022/01/08 18:56:37;;;;;;;1.00;0.63;;;5.20;92.40;;;;;;6157264;23;20437;-81
2022/01/08 18:59:03;;;;;;;1.25;0.70;;;5.20;92.40;;;;;;6183566;23;20028;-79
2022/01/08 19:01:30;;;;;;;0.65;0.50;;;5.30;92.40;;;;;;6151651;23;20006;-79
2022/01/08 19:03:58;;;;;;;1.05;0.57;;;5.30;92.40;;;;;;6154283;23;20040;-79
2022/01/08 19:06:28;;;;;;;0.63;0.50;;;5.30;92.50;;;;;;6130269;23;20434;-79
2022/01/08 19:08:54;;;;;;;1.23;0.73;;;5.30;92.50;;;;;;6157543;23;20024;-79
2022/01/08 19:11:20;;;;;;;0.93;0.60;;;5.30;92.50;;;;;;6132617;23;20056;-80
2022/01/08 19:13:46;;;;;;;0.82;0.60;;;5.30;92.50;;;;;;6131346;23;20473;-80
2022/01/08 19:16:11;;;;;;;0.90;0.68;;;5.40;92.50;;;;;;6157883;23;19998;-79
2022/01/08 19:18:39;;;;;;;0.30;0.30;;;5.40;92.50;;;;;;6157201;23;20005;-81
2022/01/08 19:21:07;;;;;;;0.30;0.30;;;5.40;92.50;;;;;;6133050;23;20008;-79
2022/01/08 19:23:34;;;;;;;0.40;0.40;;;5.40;92.50;;;;;;6157832;23;20005;-82
2022/01/08 19:26:02;;;;;;;0.63;0.40;;;5.40;92.50;;;;;;6132848;23;19997;-79
2022/01/08 19:28:29;;;;;;;1.13;0.68;;;5.40;92.50;;;;;;6157079;23;20060;-80
2022/01/08 19:30:55;;;;;;;0.85;0.60;;;5.40;92.50;;;;;;6157308;23;20001;-80
2022/01/08 19:33:21;;;;;;;0.82;0.40;;;5.40;92.50;;;;;;6129157;23;19997;-79
2022/01/08 19:35:48;;;;;;;1.08;0.60;;;5.50;92.60;;;;;;6183283;23;20059;-79
2022/01/08 19:38:14;;;;;;;0.25;0.25;;;5.40;92.60;;;;;;6157230;23;20500;-80
2022/01/08 19:40:43;;;;;;;1.08;0.57;;;5.40;92.60;;;;;;6153759;23;20141;-79
2022/01/08 19:43:09;;;;;;;0.70;0.60;;;5.40;92.60;;;;;;6157898;23;20167;-79
2022/01/08 19:45:35;;;;;;;0.82;0.50;;;5.40;92.60;;;;;;6154335;23;20852;-82
2022/01/08 19:48:01;;;;;;;0.40;0.40;;;5.50;92.60;;;;;;6156736;23;20017;-80
2022/01/08 19:50:27;;;;;;;1.42;0.70;;;5.50;92.60;;;;;;6154213;23;20002;-79
2022/01/08 19:52:53;;;;;;;0.52;0.50;;;5.50;92.60;;;;;;6156257;23;20008;-79
2022/01/08 19:55:18;;;;;;;0.73;0.60;;;5.40;92.60;;;;;;6157032;23;19997;-79
2022/01/08 19:57:44;;;;;;;1.35;0.55;;;5.60;92.70;;;;;;6156896;23;20318;-81
2022/01/08 20:00:13;;;;;;;0.30;0.30;;;5.40;92.60;;;;;;6156731;23;20012;-79
2022/01/08 20:02:38;;;;;;;0.73;0.65;;;5.40;92.60;;;;;;6156681;23;20005;-81
2022/01/08 20:05:05;;;;;;;0.57;0.55;;;5.40;92.70;;;;;;6156569;23;20032;-81
2022/01/08 20:07:32;;;;;;;1.13;0.60;;;5.40;92.70;;;;;;6183524;23;20009;-81
2022/01/08 20:09:58;;;;;;;0.77;0.50;;;5.40;92.70;;;;;;6182844;23;20326;-81
2022/01/08 20:12:24;;;;;;;1.27;0.70;;;5.50;92.70;;;;;;6154272;23;20020;-81
2022/01/08 20:14:51;;;;;;;0.30;0.30;;;5.40;92.70;;;;;;6184160;23;20028;-81
2022/01/08 20:17:16;;;;;;;0.47;0.45;;;5.40;92.70;;;;;;6157940;23;20059;-81
2022/01/08 20:19:43;;;;;;;0.63;0.47;;;5.40;92.70;;;;;;6133530;23;20362;-81
2022/01/08 20:22:09;;;;;;;1.42;0.70;;;5.40;92.70;;;;;;6157177;23;20337;-82
2022/01/08 20:24:38;;;;;;;0.50;0.50;;;5.50;92.70;;;;;;6157801;23;20001;-81
2022/01/08 20:27:24;;;;;;;0.98;0.68;;;5.50;92.70;;;;;;6183923;23;20009;-81
2022/01/08 20:29:50;;;;;;;1.00;0.50;;;5.50;92.70;;;;;;6162092;23;20009;-79
2022/01/08 20:32:18;;;;;;;0.50;0.50;;;5.50;92.70;;;;;;6184225;23;20322;-78
2022/01/08 20:34:44;;;;;;;0.28;0.28;;;5.50;92.70;;;;;;6157748;23;20021;-79
2022/01/08 20:37:11;;;;;;;0.30;0.30;;;5.50;92.70;;;;;;6158164;23;20052;-78
2022/01/08 20:39:37;;;;;;;1.08;0.43;;;5.50;92.80;;;;;;6133376;23;20005;-79
2022/01/08 20:42:04;;;;;;;0.30;0.30;;;5.50;92.80;;;;;;6130973;23;20025;-79
2022/01/08 20:44:30;;;;;;;0.30;0.30;;;5.50;92.80;;;;;;6130408;23;20052;-79
2022/01/08 20:46:56;;;;;;;0.30;0.30;;;5.50;92.80;;;;;;6157864;23;20009;-78
2022/01/08 20:49:21;;;;;;;0.38;0.35;;;5.50;92.80;;;;;;6128282;23;19998;-79
2022/01/08 20:51:47;;;;;;;0.68;0.38;;;5.40;92.80;;;;;;6157595;23;20326;-79
2022/01/08 20:54:13;;;;;;;0.52;0.30;;;5.60;92.90;;;;;;6133542;23;19997;-79
2022/01/08 20:56:39;;;;;;;0.63;0.22;;;5.50;92.90;;;;;;6158330;23;20001;-79
2022/01/08 20:59:04;;;;;;;1.42;0.25;;;5.40;92.80;;;;;;6158812;23;20080;-79
2022/01/08 21:01:30;;;;;;;0.45;0.22;;;5.50;92.90;;;;;;6184113;23;20011;-79
2022/01/08 21:03:56;;;;;;;0.22;0.22;;;5.40;92.90;;;;;;6183035;23;20005;-79
2022/01/08 21:06:23;;;;;;;0.20;0.20;;;5.50;92.90;;;;;;6132475;23;20089;-79
2022/01/08 21:08:48;;;;;;;0.20;0.20;;;5.40;93.00;;;;;;6133217;23;20005;-80